EST,Max TemperatureF,Mean TemperatureF,Min TemperatureF,Max Dew PointF,MeanDew PointF,Min DewpointF,Max Humidity, Mean Humidity, Min Humidity, Max Sea Level PressureIn, Mean Sea Level PressureIn, Min Sea Level PressureIn, Max VisibilityMiles, Mean VisibilityMiles, Min VisibilityMiles, Max Wind SpeedMPH, Mean Wind SpeedMPH, Max Gust SpeedMPH,PrecipitationIn, CloudCover, Events, WindDirDegrees
2013-2-1,39,30,21,24,8,0,63,44,25,30.40,30.17,29.83,10,10,9,26,10,37,T,1,,287
2013-2-2,40,28,15,26,12,4,80,54,27,30.39,30.22,30.02,10,10,10,17,4,23,0.00,4,,219
2013-2-3,48,38,28,28,23,18,85,60,34,29.99,29.92,29.83,10,10,10,21,7,30,T,5,,267
2013-2-4,46,35,23,25,19,16,68,51,33,30.14,30.03,29.97,10,10,10,14,5,21,0.00,2,,243
2013-2-5,60,49,37,33,29,25,70,53,35,29.95,29.92,29.86,10,10,10,17,7,24,0.00,4,,243
2013-2-6,59,45,30,31,26,22,85,55,24,30.28,30.13,29.95,10,10,10,14,5,16,0.00,0,,345
2013-2-7,45,39,33,36,30,24,92,73,53,30.36,30.25,30.09,10,9,4,14,8,18,0.50,6,Rain,42
2013-2-8,59,48,36,42,33,24,92,66,39,30.05,29.92,29.81,10,10,5,23,10,32,0.25,5,Rain,329
2013-2-9,53,40,26,23,18,12,69,45,21,30.35,30.23,30.04,10,10,10,15,5,23,0.00,0,,286
2013-2-10,53,38,22,35,21,15,81,53,24,30.49,30.35,30.19,10,10,10,10,2,16,0.04,2,Rain,133
2013-2-11,57,49,41,54,44,36,96,89,82,30.18,30.03,29.90,10,6,2,16,5,21,0.10,7,Rain,239
2013-2-12,60,50,40,43,28,21,89,56,23,30.05,29.98,29.92,10,10,10,17,7,23,0.05,1,Rain,260
2013-2-13,48,43,37,43,42,30,92,79,66,29.91,29.73,29.63,10,7,2,16,4,23,0.27,7,Rain,223
2013-2-14,53,41,28,31,28,25,92,64,35,30.04,29.98,29.85,10,10,9,12,4,17,0.00,0,,222
2013-2-15,62,45,28,35,30,26,92,59,25,30.08,30.00,29.91,10,10,9,18,7,24,0.00,2,,250
2013-2-16,44,37,30,32,29,14,89,71,53,29.97,29.91,29.85,10,5,0,13,5,18,0.12,7,Fog-Rain-Snow,21
2013-2-17,36,28,20,14,7,4,60,43,26,30.25,30.09,29.93,10,10,10,24,10,36,0.00,1,,302
2013-2-18,54,34,14,22,16,10,84,55,26,30.39,30.30,30.19,10,10,10,14,4,18,0.00,0,,202
2013-2-19,48,42,36,41,32,16,92,69,45,30.19,29.98,29.84,10,9,4,16,8,21,0.17,4,Rain,223
2013-2-20,53,41,28,17,12,5,53,37,20,30.15,30.04,29.97,10,10,10,22,8,30,0.00,0,,289
2013-2-21,54,38,21,20,16,13,58,39,20,30.26,30.17,30.11,10,10,10,10,4,,0.00,0,,350
2013-2-22,41,37,32,34,27,18,92,66,40,30.34,30.26,30.15,10,9,2,12,3,16,0.09,8,Rain-Snow,58
2013-2-23,47,41,35,40,36,32,93,85,76,30.15,29.98,29.81,10,8,2,12,3,14,0.16,7,Rain,15
2013-2-24,62,48,34,40,32,20,92,58,23,30.04,29.88,29.79,10,7,0,18,7,25,0.00,1,Fog,300
2013-2-25,43,36,29,23,21,19,69,54,39,30.23,30.16,30.05,10,10,10,14,4,20,0.00,0,,68
2013-2-26,45,38,30,43,35,23,96,78,59,30.16,29.79,29.60,10,5,0,18,8,23,0.89,8,Fog-Rain,37
2013-2-27,58,49,40,39,36,32,93,67,40,29.75,29.68,29.61,10,9,2,16,8,22,0.01,5,Rain,244
2013-2-28,49,43,36,39,27,22,89,63,36,29.83,29.75,29.68,10,10,10,17,8,26,T,5,,287